»·PEaware :: N698J KTOA-KVNY

N698J :: KTOA-KVNY

FLIGHT INFORMATION

Flight Status: Arrived
Operator: Privately registered:
United States
More flights under this callsign
Pilot: Ahmad S. (5672)
Aircraft: BEECH AIRCRAFT BARON
(BE58)
More flights by this aircraft type
Origin: KTOA Zamperini
United States
Destination: KVNY Van Nuys
United States
More flights between these airports :: More routes between these airports
Route: +LAX170 LIMBO V64 SMO125 SMO SMO317 CANOG
File this flight plan on PilotEdge
Remarks: Scenario 1
Altitude:
(Current/Filed)
4,000ft
Speed:
(Current/Filed)
150kts
Departed: 14-Feb-20 07:00 AM
Arrived: 14-Feb-20 11:58 AM
Distance/Time
Traveled:
25nm/4:58
Distance/Time
To Go:
Arrived

Flight Plot

Page will automatically refresh every two minutes.

Flight plan parsing failed; only flown route is shown


Map Options




Map Legend


Flown Route
Filed Route
Departure Airport
Arrival Airport
Navaid (VOR, NDB)
Fix

Horizontal Profiles

Position Reports

Time Latitude Longitude Heading Altitude Ground
Speed
14-Feb-20 06:59 34.153525 -118.714311 197 10418ft 126kts
14-Feb-20 06:59 34.122276 -118.726222 197 10514ft 156kts
14-Feb-20 07:00 34.078320 -118.743015 197 10500ft 171kts
14-Feb-20 07:01 34.032264 -118.760622 197 10498ft 174kts
14-Feb-20 07:02 33.985939 -118.778290 197 10506ft 174kts
14-Feb-20 07:03 33.939508 -118.795622 197 10507ft 175kts
14-Feb-20 07:04 33.892627 -118.812971 197 10509ft 175kts
14-Feb-20 07:05 33.844494 -118.828927 178 10089ft 194kts
14-Feb-20 07:06 33.790153 -118.811038 162 9123ft 208kts
14-Feb-20 07:07 33.734274 -118.790411 162 8124ft 210kts
14-Feb-20 07:08 33.679398 -118.770513 162 7074ft 197kts
14-Feb-20 07:09 33.626187 -118.751557 162 5887ft 210kts
14-Feb-20 07:10 33.573972 -118.716802 144 4692ft 218kts
14-Feb-20 07:11 33.524569 -118.674498 143 3615ft 209kts
14-Feb-20 07:12 33.483489 -118.636796 129 2921ft 173kts
14-Feb-20 07:13 33.461326 -118.589076 107 2614ft 152kts
14-Feb-20 07:14 33.449579 -118.541579 105 2594ft 145kts
14-Feb-20 07:15 33.443927 -118.495232 96 2603ft 139kts
14-Feb-20 07:16 33.436869 -118.449611 124 2597ft 138kts
14-Feb-20 07:17 33.435913 -118.415706 53 2497ft 98kts
14-Feb-20 07:18 33.428021 -118.392886 144 2088ft 89kts
14-Feb-20 07:19 33.411151 -118.405597 231 1876ft 89kts
14-Feb-20 07:20 33.393846 -118.436230 242 2732ft 114kts
14-Feb-20 07:21 33.409678 -118.466813 353 3166ft 168kts
14-Feb-20 07:22 33.442226 -118.435108 50 2596ft 137kts
14-Feb-20 07:23 33.443226 -118.404203 137 2158ft 107kts
14-Feb-20 07:24 33.420637 -118.392403 225 1873ft 96kts
14-Feb-20 07:25 33.404496 -118.416606 237 1605ft 22kts
14-Feb-20 07:26 33.404646 -118.415242 53 1605ft 13kts
14-Feb-20 07:27 33.406834 -118.411717 53 1605ft 0kts
14-Feb-20 07:28 33.406356 -118.413470 234 1605ft 62kts
14-Feb-20 07:29 33.393408 -118.446491 270 2286ft 146kts
14-Feb-20 07:30 33.428006 -118.447848 48 3013ft 179kts
14-Feb-20 07:31 33.460114 -118.400036 51 3396ft 187kts
14-Feb-20 07:32 33.500631 -118.359273 37 3399ft 193kts
14-Feb-20 07:33 33.552589 -118.337986 11 3025ft 203kts
14-Feb-20 07:34 33.606602 -118.347930 342 2997ft 197kts
14-Feb-20 07:35 33.658888 -118.368125 342 2877ft 198kts
14-Feb-20 07:36 33.709596 -118.387885 342 2106ft 187kts
14-Feb-20 07:37 33.758300 -118.406647 342 1481ft 182kts
14-Feb-20 07:38 33.796533 -118.387285 81 1166ft 142kts
14-Feb-20 07:39 33.778383 -118.353053 124 1199ft 117kts
14-Feb-20 07:40 33.777060 -118.321438 45 795ft 101kts
14-Feb-20 07:41 33.794817 -118.328115 305 344ft 94kts
14-Feb-20 07:42 33.804924 -118.343905 242 106ft 5kts
14-Feb-20 07:43 33.803560 -118.345382 217 106ft 0kts
14-Feb-20 07:44 33.803560 -118.345382 217 106ft 0kts
14-Feb-20 07:45 33.803560 -118.345382 217 106ft 0kts
14-Feb-20 07:46 33.803560 -118.345382 217 106ft 0kts
14-Feb-20 07:47 33.803560 -118.345382 217 106ft 0kts
14-Feb-20 07:48 33.803560 -118.345382 217 106ft 0kts
14-Feb-20 07:49 33.803560 -118.345382 217 106ft 0kts
14-Feb-20 07:50 33.803560 -118.345382 217 106ft 0kts
14-Feb-20 07:51 33.803560 -118.345382 217 106ft 0kts
14-Feb-20 07:52 33.803560 -118.345382 217 106ft 0kts
14-Feb-20 07:53 33.803560 -118.345382 217 106ft 0kts
14-Feb-20 07:54 33.803560 -118.345382 217 106ft 0kts
14-Feb-20 07:55 33.803560 -118.345382 217 106ft 0kts
14-Feb-20 07:56 33.803560 -118.345382 217 106ft 0kts
14-Feb-20 07:57 33.803560 -118.345382 217 106ft 0kts
14-Feb-20 07:58 33.803560 -118.345382 217 106ft 0kts
14-Feb-20 07:59 33.803560 -118.345382 217 106ft 0kts
14-Feb-20 08:00 33.803560 -118.345382 217 106ft 0kts
14-Feb-20 08:01 33.803560 -118.345382 217 106ft 0kts
14-Feb-20 08:02 33.803560 -118.345382 217 106ft 0kts
14-Feb-20 08:03 33.803560 -118.345382 217 106ft 0kts
14-Feb-20 08:04 33.803560 -118.345382 217 106ft 0kts
14-Feb-20 08:05 33.803560 -118.345382 217 106ft 0kts
14-Feb-20 08:06 33.803560 -118.345382 217 106ft 0kts
14-Feb-20 08:07 33.803560 -118.345382 217 106ft 0kts
14-Feb-20 08:08 33.803560 -118.345382 217 106ft 0kts
14-Feb-20 08:09 33.803560 -118.345382 217 106ft 0kts
14-Feb-20 08:10 33.803560 -118.345382 217 106ft 0kts
14-Feb-20 08:11 33.803560 -118.345382 217 106ft 0kts
14-Feb-20 08:12 33.803560 -118.345382 217 106ft 0kts
14-Feb-20 08:13 33.803560 -118.345382 217 106ft 0kts
14-Feb-20 08:14 33.803560 -118.345382 217 106ft 0kts
14-Feb-20 08:15 33.803560 -118.345382 217 106ft 0kts
14-Feb-20 08:16 33.803560 -118.345382 217 106ft 0kts
14-Feb-20 08:17 33.803560 -118.345382 217 106ft 0kts
14-Feb-20 08:18 33.803560 -118.345382 217 106ft 0kts
14-Feb-20 08:19 33.803560 -118.345382 217 106ft 0kts
14-Feb-20 08:20 33.803560 -118.345382 217 106ft 0kts
14-Feb-20 08:21 33.803560 -118.345382 217 106ft 0kts
14-Feb-20 08:22 33.803560 -118.345382 217 106ft 0kts
14-Feb-20 08:23 33.803560 -118.345382 217 106ft 0kts
14-Feb-20 08:24 33.803560 -118.345382 217 106ft 0kts
14-Feb-20 08:25 33.803560 -118.345382 217 106ft 0kts
14-Feb-20 08:26 33.803560 -118.345382 217 106ft 0kts
14-Feb-20 08:27 33.803560 -118.345382 217 106ft 0kts
14-Feb-20 08:28 33.803560 -118.345382 217 106ft 0kts
14-Feb-20 08:29 33.803560 -118.345382 217 106ft 0kts
14-Feb-20 08:30 33.803560 -118.345382 217 106ft 0kts
14-Feb-20 08:31 33.803560 -118.345382 217 106ft 0kts
14-Feb-20 08:32 33.803560 -118.345382 217 106ft 0kts
14-Feb-20 08:33 33.803560 -118.345382 217 106ft 0kts
14-Feb-20 08:34 33.803560 -118.345382 217 106ft 0kts
14-Feb-20 08:35 33.803560 -118.345382 217 106ft 0kts
14-Feb-20 08:36 33.803560 -118.345382 217 106ft 0kts
14-Feb-20 08:37 33.803560 -118.345382 217 106ft 0kts
14-Feb-20 08:38 33.803560 -118.345382 217 106ft 0kts
14-Feb-20 08:39 33.803560 -118.345382 217 106ft 0kts
14-Feb-20 08:40 33.803560 -118.345382 217 106ft 0kts
14-Feb-20 08:41 33.803560 -118.345382 217 106ft 0kts
14-Feb-20 08:42 33.803560 -118.345382 217 106ft 0kts
14-Feb-20 08:43 33.803560 -118.345382 217 106ft 0kts
14-Feb-20 08:44 33.803560 -118.345382 217 106ft 0kts
14-Feb-20 08:45 33.803560 -118.345382 217 106ft 0kts
14-Feb-20 08:46 33.803560 -118.345382 217 106ft 0kts
14-Feb-20 08:47 33.803560 -118.345382 217 106ft 0kts
14-Feb-20 08:48 33.803560 -118.345382 217 106ft 0kts
14-Feb-20 08:49 33.803560 -118.345382 217 106ft 0kts
14-Feb-20 08:51 33.803560 -118.345382 217 106ft 0kts
14-Feb-20 08:52 33.803560 -118.345382 217 106ft 0kts
14-Feb-20 08:53 33.803560 -118.345382 217 106ft 0kts
14-Feb-20 08:54 33.803560 -118.345382 217 106ft 0kts
14-Feb-20 08:55 33.803560 -118.345382 217 106ft 0kts
14-Feb-20 08:56 33.803560 -118.345382 217 106ft 0kts
14-Feb-20 08:57 33.803560 -118.345382 217 106ft 0kts
14-Feb-20 08:58 33.803560 -118.345382 217 106ft 0kts
14-Feb-20 08:59 33.803560 -118.345382 217 106ft 0kts
14-Feb-20 09:00 33.803560 -118.345382 217 106ft 0kts
14-Feb-20 09:01 33.803560 -118.345382 217 106ft 0kts
14-Feb-20 09:02 33.803560 -118.345382 217 106ft 0kts
14-Feb-20 09:03 33.803560 -118.345382 217 106ft 0kts
14-Feb-20 09:04 33.803560 -118.345382 217 106ft 0kts
14-Feb-20 09:05 33.803560 -118.345382 217 106ft 0kts
14-Feb-20 09:06 33.803560 -118.345382 217 106ft 0kts
14-Feb-20 09:07 33.803560 -118.345382 217 106ft 0kts
14-Feb-20 09:08 33.803560 -118.345382 217 106ft 0kts
14-Feb-20 09:09 33.803560 -118.345382 217 106ft 0kts
14-Feb-20 09:10 33.803560 -118.345382 217 106ft 0kts
14-Feb-20 09:10 33.803560 -118.345382 217 106ft 0kts
14-Feb-20 09:11 33.803560 -118.345382 217 106ft 0kts
14-Feb-20 09:13 33.803560 -118.345382 217 106ft 0kts
14-Feb-20 09:13 33.803560 -118.345382 217 106ft 0kts
14-Feb-20 09:14 33.803560 -118.345382 217 106ft 0kts
14-Feb-20 09:16 33.803560 -118.345382 217 106ft 0kts
14-Feb-20 09:16 33.803560 -118.345382 217 106ft 0kts
14-Feb-20 09:17 33.803560 -118.345382 217 106ft 0kts
14-Feb-20 09:18 33.803560 -118.345382 217 106ft 0kts
14-Feb-20 09:19 33.803560 -118.345382 217 106ft 0kts
14-Feb-20 09:20 33.803560 -118.345382 217 106ft 0kts
14-Feb-20 09:21 33.803560 -118.345382 217 106ft 0kts
14-Feb-20 09:22 33.803560 -118.345382 217 106ft 0kts
14-Feb-20 09:23 33.803560 -118.345382 217 106ft 0kts
14-Feb-20 09:24 33.803560 -118.345382 217 106ft 0kts
14-Feb-20 09:25 33.803560 -118.345382 217 106ft 0kts
14-Feb-20 09:26 33.803560 -118.345382 217 106ft 0kts
14-Feb-20 09:27 33.803560 -118.345382 217 106ft 0kts
14-Feb-20 09:28 33.803560 -118.345382 217 106ft 0kts
14-Feb-20 09:29 33.803560 -118.345382 217 106ft 0kts
14-Feb-20 09:30 33.803560 -118.345382 217 106ft 0kts
14-Feb-20 09:31 33.803560 -118.345382 217 106ft 0kts
14-Feb-20 09:32 33.803560 -118.345382 217 106ft 0kts
14-Feb-20 09:33 33.803560 -118.345382 217 106ft 0kts
14-Feb-20 09:34 33.803560 -118.345382 217 106ft 0kts
14-Feb-20 09:35 33.803560 -118.345382 217 106ft 0kts
14-Feb-20 09:36 33.803560 -118.345382 217 106ft 0kts
14-Feb-20 09:37 33.803560 -118.345382 217 106ft 0kts
14-Feb-20 09:38 33.803560 -118.345382 217 106ft 0kts
14-Feb-20 09:39 33.803560 -118.345382 217 106ft 0kts
14-Feb-20 09:40 33.803560 -118.345382 217 106ft 0kts
14-Feb-20 09:41 33.803560 -118.345382 217 106ft 0kts
14-Feb-20 09:42 33.803560 -118.345382 217 106ft 0kts
14-Feb-20 09:43 33.803560 -118.345382 217 106ft 0kts
14-Feb-20 09:44 33.803560 -118.345382 217 106ft 0kts
14-Feb-20 09:45 33.803560 -118.345382 217 106ft 0kts
14-Feb-20 09:46 33.803560 -118.345382 217 106ft 0kts
14-Feb-20 09:47 33.803560 -118.345382 217 106ft 0kts
14-Feb-20 09:48 33.803560 -118.345382 217 106ft 0kts
14-Feb-20 09:49 33.803560 -118.345382 217 106ft 0kts
14-Feb-20 09:50 33.803560 -118.345382 217 106ft 0kts
14-Feb-20 09:51 33.803560 -118.345382 217 106ft 0kts
14-Feb-20 09:52 33.803560 -118.345382 217 106ft 0kts
14-Feb-20 09:53 33.803560 -118.345382 217 106ft 0kts
14-Feb-20 09:54 33.803560 -118.345382 217 106ft 0kts
14-Feb-20 09:55 33.803560 -118.345382 217 106ft 0kts
14-Feb-20 09:56 33.803560 -118.345382 217 106ft 0kts
14-Feb-20 09:57 33.803560 -118.345382 217 106ft 0kts
14-Feb-20 09:58 33.803560 -118.345382 217 106ft 0kts
14-Feb-20 09:59 33.803560 -118.345382 217 106ft 0kts
14-Feb-20 10:00 33.803560 -118.345382 217 106ft 0kts
14-Feb-20 10:01 33.803560 -118.345382 217 106ft 0kts
14-Feb-20 10:02 33.803560 -118.345382 217 106ft 0kts
14-Feb-20 10:03 33.803560 -118.345382 217 106ft 0kts
14-Feb-20 10:04 33.803560 -118.345382 217 106ft 0kts
14-Feb-20 10:05 33.803560 -118.345382 217 106ft 0kts
14-Feb-20 10:06 33.803560 -118.345382 217 106ft 0kts
14-Feb-20 10:07 33.803560 -118.345382 217 106ft 0kts
14-Feb-20 10:08 33.803560 -118.345382 217 106ft 0kts
14-Feb-20 10:09 33.803560 -118.345382 217 106ft 0kts
14-Feb-20 10:10 33.803560 -118.345382 217 106ft 0kts
14-Feb-20 10:11 33.803560 -118.345382 217 106ft 0kts
14-Feb-20 10:12 33.803560 -118.345382 217 106ft 0kts
14-Feb-20 10:13 33.803560 -118.345382 217 106ft 0kts
14-Feb-20 10:14 33.803560 -118.345382 217 106ft 0kts
14-Feb-20 10:15 33.803560 -118.345382 217 106ft 0kts
14-Feb-20 10:16 33.803560 -118.345382 217 106ft 0kts
14-Feb-20 10:17 33.803560 -118.345382 217 106ft 0kts
14-Feb-20 10:18 33.803560 -118.345382 217 106ft 0kts
14-Feb-20 10:19 33.803560 -118.345382 217 106ft 0kts
14-Feb-20 10:20 33.803560 -118.345382 217 106ft 0kts
14-Feb-20 10:21 33.803560 -118.345382 217 106ft 0kts
14-Feb-20 10:22 33.803560 -118.345382 217 106ft 0kts
14-Feb-20 10:23 33.803560 -118.345382 217 106ft 0kts
14-Feb-20 10:24 33.803560 -118.345382 217 106ft 0kts
14-Feb-20 10:25 33.803560 -118.345382 217 106ft 0kts
14-Feb-20 10:26 33.803560 -118.345382 217 106ft 0kts
14-Feb-20 10:27 33.803560 -118.345382 217 106ft 0kts
14-Feb-20 10:28 33.803560 -118.345382 217 106ft 0kts
14-Feb-20 10:29 33.803560 -118.345382 217 106ft 0kts
14-Feb-20 10:30 33.803560 -118.345382 217 106ft 0kts
14-Feb-20 10:31 33.803560 -118.345382 217 106ft 0kts
14-Feb-20 10:32 33.803560 -118.345382 217 106ft 0kts
14-Feb-20 10:33 33.803560 -118.345382 217 106ft 0kts
14-Feb-20 10:34 33.803560 -118.345382 217 106ft 0kts
14-Feb-20 10:35 33.803560 -118.345382 217 106ft 0kts
14-Feb-20 10:36 33.803560 -118.345382 217 106ft 0kts
14-Feb-20 10:37 33.803560 -118.345382 217 106ft 0kts
14-Feb-20 10:38 33.803560 -118.345382 217 106ft 0kts
14-Feb-20 10:39 33.803560 -118.345382 217 106ft 0kts
14-Feb-20 10:40 33.803560 -118.345382 217 106ft 0kts
14-Feb-20 10:41 33.803560 -118.345382 217 106ft 0kts
14-Feb-20 10:42 33.803560 -118.345382 217 106ft 0kts
14-Feb-20 10:43 33.803560 -118.345382 217 106ft 0kts
14-Feb-20 10:44 33.803560 -118.345382 217 106ft 0kts
14-Feb-20 10:45 33.803560 -118.345382 217 106ft 0kts
14-Feb-20 10:46 33.803560 -118.345382 217 106ft 0kts
14-Feb-20 10:47 33.803560 -118.345382 217 106ft 0kts
14-Feb-20 10:48 33.803560 -118.345382 217 106ft 0kts
14-Feb-20 10:49 33.803560 -118.345382 217 106ft 0kts
14-Feb-20 10:50 33.803560 -118.345382 217 106ft 0kts
14-Feb-20 10:51 33.803560 -118.345382 217 106ft 0kts
14-Feb-20 10:52 33.803560 -118.345382 217 106ft 0kts
14-Feb-20 10:53 33.803560 -118.345382 217 106ft 0kts
14-Feb-20 10:54 33.803538 -118.345029 50 106ft 3kts
14-Feb-20 10:55 33.804248 -118.344046 130 106ft 20kts
14-Feb-20 10:56 33.798385 -118.335395 128 106ft 22kts
14-Feb-20 10:57 33.799195 -118.333442 36 106ft 0kts
14-Feb-20 10:58 33.799200 -118.333437 36 106ft 0kts
14-Feb-20 10:59 33.806204 -118.343236 303 458ft 90kts
14-Feb-20 11:00 33.825179 -118.378258 302 1523ft 152kts
14-Feb-20 11:01 33.850369 -118.425041 302 2515ft 169kts
14-Feb-20 11:02 33.835720 -118.457203 150 3064ft 147kts
14-Feb-20 11:03 33.799936 -118.441773 175 3689ft 137kts
14-Feb-20 11:05 33.761980 -118.452369 191 4007ft 149kts
14-Feb-20 11:06 33.749251 -118.415624 71 4007ft 159kts
14-Feb-20 11:07 33.761552 -118.362698 85 4001ft 168kts
14-Feb-20 11:08 33.765484 -118.306563 85 4000ft 167kts
14-Feb-20 11:09 33.771963 -118.251270 56 4002ft 177kts
14-Feb-20 11:10 33.816668 -118.258883 323 4004ft 189kts
14-Feb-20 11:11 33.857232 -118.301951 317 4003ft 200kts
14-Feb-20 11:12 33.899955 -118.345710 320 4007ft 208kts
14-Feb-20 11:13 33.944203 -118.390021 319 3992ft 202kts
14-Feb-20 11:14 33.987245 -118.433478 319 3998ft 208kts
14-Feb-20 11:15 34.035187 -118.471128 334 3995ft 203kts
14-Feb-20 11:16 34.082875 -118.500955 331 3990ft 187kts
14-Feb-20 11:17 34.127002 -118.530887 329 4456ft 177kts
14-Feb-20 11:18 34.170684 -118.560848 331 4977ft 195kts
14-Feb-20 11:19 34.221024 -118.591295 347 4980ft 209kts
14-Feb-20 11:20 34.278600 -118.596436 357 4981ft 210kts
14-Feb-20 11:21 34.336545 -118.599609 357 4982ft 209kts
14-Feb-20 11:22 34.394031 -118.602630 357 4989ft 208kts
14-Feb-20 11:22 34.441789 -118.605106 357 5000ft 204kts
14-Feb-20 11:24 34.506555 -118.608470 357 4998ft 189kts
14-Feb-20 11:25 34.541165 -118.583683 105 5206ft 166kts
14-Feb-20 11:25 34.509224 -118.555319 152 5222ft 180kts
14-Feb-20 11:26 34.464629 -118.523274 152 5226ft 192kts
14-Feb-20 11:28 34.406535 -118.504777 178 5216ft 182kts
14-Feb-20 11:28 34.365443 -118.505711 177 4757ft 157kts
14-Feb-20 11:29 34.326219 -118.501722 172 3693ft 124kts
14-Feb-20 11:30 34.294522 -118.498226 175 2825ft 106kts
14-Feb-20 11:31 34.262850 -118.495413 175 1982ft 116kts
14-Feb-20 11:32 34.234308 -118.492692 176 1335ft 96kts
14-Feb-20 11:33 34.201171 -118.490529 176 1704ft 165kts
14-Feb-20 11:34 34.155963 -118.471414 152 1999ft 169kts
14-Feb-20 11:35 34.115328 -118.462175 165 2961ft 141kts
14-Feb-20 11:36 34.075559 -118.459348 187 3967ft 142kts
14-Feb-20 11:37 34.035526 -118.468714 189 4578ft 147kts
14-Feb-20 11:38 34.017421 -118.504271 279 4620ft 160kts
14-Feb-20 11:39 34.027854 -118.559411 283 4582ft 168kts
14-Feb-20 11:40 34.039686 -118.619482 281 4595ft 190kts
14-Feb-20 11:41 34.050810 -118.683801 280 4593ft 200kts
14-Feb-20 11:42 34.061523 -118.750137 281 4579ft 198kts
14-Feb-20 11:43 34.073139 -118.814609 281 4581ft 195kts
14-Feb-20 11:44 34.084547 -118.878424 281 4576ft 189kts
14-Feb-20 11:45 34.121558 -118.897800 21 4584ft 167kts
14-Feb-20 11:46 34.159677 -118.870697 59 4612ft 162kts
14-Feb-20 11:47 34.181575 -118.821158 62 4604ft 173kts
14-Feb-20 11:48 34.200734 -118.766285 76 4598ft 176kts
14-Feb-20 11:49 34.206108 -118.708063 92 4188ft 161kts
14-Feb-20 11:50 34.202020 -118.655317 95 3490ft 147kts
14-Feb-20 11:51 34.200354 -118.610937 90 3383ft 117kts
14-Feb-20 11:52 34.197750 -118.569761 94 2693ft 120kts
14-Feb-20 11:53 34.199707 -118.532577 39 1981ft 110kts
14-Feb-20 11:54 34.227890 -118.532839 358 1500ft 104kts
14-Feb-20 11:55 34.241564 -118.506747 85 1182ft 86kts
14-Feb-20 11:56 34.224845 -118.490989 171 957ft 85kts
14-Feb-20 11:57 34.208089 -118.488929 177 805ft 8kts
14-Feb-20 11:58 34.208786 -118.486859 26 805ft 9kts

Navigation Log

Ident Type
Flight plan parsing failed, navigation log unavailable